Time;durP1;ratioP1;P1;durP2;ratioP2;P2;SDS_P1;SDS_P2;PMS_P1;PMS_P2;Temp;Humidity;BMP_temperature;BMP_pressure;BME280_temperature;BME280_humidity;BME280_pressure;Samples;Min_cycle;Max_cycle;Signal;HPM_P1;HPM_P2
2022/01/19 00:00:58;;;;;;;10.68;6.03;;;3.80;99.90;;;;;;5052269;28;20036;-84
2022/01/19 00:03:27;;;;;;;9.32;5.65;;;3.80;99.90;;;;;;5069486;28;20024;-85
2022/01/19 00:05:54;;;;;;;12.63;5.60;;;3.80;99.90;;;;;;5019453;28;20043;-84
2022/01/19 00:08:21;;;;;;;11.43;5.88;;;3.80;99.90;;;;;;5035973;28;20028;-85
2022/01/19 00:10:53;;;;;;;9.68;5.80;;;3.80;99.90;;;;;;5053037;28;20043;-85
2022/01/19 00:13:20;;;;;;;9.50;5.75;;;3.80;99.90;;;;;;5037820;28;20029;-85
2022/01/19 00:15:47;;;;;;;11.75;6.68;;;3.80;99.90;;;;;;5050832;28;20036;-84
2022/01/19 00:18:15;;;;;;;11.20;5.72;;;3.80;99.90;;;;;;5049289;28;20029;-85
2022/01/19 00:20:41;;;;;;;9.73;5.25;;;3.80;99.90;;;;;;5035328;28;20056;-85
2022/01/19 00:23:06;;;;;;;10.73;5.57;;;3.70;99.90;;;;;;5052243;28;20132;-85
2022/01/19 00:25:36;;;;;;;10.52;5.55;;;3.70;99.90;;;;;;5069159;28;20032;-85
2022/01/19 00:28:03;;;;;;;11.93;5.90;;;3.70;99.90;;;;;;5049989;28;20039;-85
2022/01/19 00:30:35;;;;;;;11.80;5.30;;;3.70;99.90;;;;;;5026025;28;20033;-84
2022/01/19 00:33:08;;;;;;;10.18;5.78;;;3.70;99.90;;;;;;5031875;28;20043;-85
2022/01/19 00:35:35;;;;;;;6.53;4.20;;;3.70;99.90;;;;;;5046059;28;20850;-85
2022/01/19 00:38:05;;;;;;;9.52;5.22;;;3.70;99.90;;;;;;5052308;28;20425;-84
2022/01/19 00:40:34;;;;;;;10.10;5.38;;;3.70;99.90;;;;;;5033213;28;20083;-85
2022/01/19 00:43:00;;;;;;;7.63;4.63;;;3.70;99.90;;;;;;5027045;28;20567;-84
2022/01/19 00:45:26;;;;;;;11.15;4.72;;;3.70;99.90;;;;;;5015948;28;20124;-85
2022/01/19 00:47:51;;;;;;;9.25;5.03;;;3.70;99.90;;;;;;4999285;28;20039;-84
2022/01/19 00:50:22;;;;;;;10.00;4.57;;;3.70;99.90;;;;;;5041166;28;20390;-85
2022/01/19 00:52:51;;;;;;;8.75;4.03;;;3.70;99.90;;;;;;5052101;28;20052;-85
2022/01/19 00:55:17;;;;;;;6.22;3.83;;;3.70;99.90;;;;;;5032661;28;20033;-85
2022/01/19 00:57:43;;;;;;;7.18;3.55;;;3.70;99.90;;;;;;5052125;28;20065;-84
2022/01/19 01:00:12;;;;;;;4.93;3.13;;;3.70;99.90;;;;;;5052226;28;20119;-84
2022/01/19 01:02:38;;;;;;;5.65;3.78;;;3.70;99.90;;;;;;5035703;28;20433;-85
2022/01/19 01:05:05;;;;;;;9.63;3.83;;;3.70;99.90;;;;;;5052084;28;20036;-85
2022/01/19 01:07:33;;;;;;;6.57;3.45;;;3.60;99.90;;;;;;5068535;28;20027;-85
2022/01/19 01:09:59;;;;;;;8.20;4.20;;;3.60;99.90;;;;;;5068546;28;20031;-85
2022/01/19 01:12:42;;;;;;;6.00;4.15;;;3.60;99.90;;;;;;5047542;28;20454;-85
2022/01/19 01:18:19;;;;;;;7.43;4.15;;;3.60;99.90;;;;;;5068910;28;20124;-85
2022/01/19 01:20:46;;;;;;;6.22;3.63;;;3.60;99.90;;;;;;5059601;28;20128;-85
2022/01/19 01:23:12;;;;;;;9.20;3.80;;;3.50;99.90;;;;;;5031923;28;20033;-85
2022/01/19 01:25:38;;;;;;;8.48;3.65;;;3.50;99.90;;;;;;5032190;28;20458;-84
2022/01/19 01:28:06;;;;;;;6.93;3.83;;;3.50;99.90;;;;;;5016882;28;20060;-85
2022/01/19 01:30:32;;;;;;;5.80;3.97;;;3.50;99.90;;;;;;5043948;28;20097;-85
2022/01/19 01:32:58;;;;;;;8.27;4.82;;;3.50;99.90;;;;;;5050375;28;20025;-85
2022/01/19 01:35:24;;;;;;;6.63;4.18;;;3.50;99.90;;;;;;5039061;28;20162;-85
2022/01/19 01:37:50;;;;;;;8.20;4.45;;;3.40;99.90;;;;;;5055284;28;20025;-84
2022/01/19 01:40:16;;;;;;;7.53;4.50;;;3.40;99.90;;;;;;5071759;28;20120;-85
2022/01/19 01:42:42;;;;;;;5.90;4.38;;;3.40;99.90;;;;;;5055374;28;20163;-84
2022/01/19 01:45:15;;;;;;;6.15;4.20;;;3.40;99.90;;;;;;5072023;28;20039;-85
2022/01/19 01:47:47;;;;;;;12.20;5.47;;;3.40;99.90;;;;;;5071823;28;20395;-85
2022/01/19 01:55:24;;;;;;;7.97;4.53;;;3.40;99.90;;;;;;5038337;28;20423;-85
2022/01/19 01:57:53;;;;;;;6.93;4.15;;;3.40;99.90;;;;;;5062667;28;20174;-85
2022/01/19 02:00:23;;;;;;;8.20;4.15;;;3.30;99.90;;;;;;5071737;28;20402;-84
2022/01/19 02:02:48;;;;;;;8.88;5.47;;;3.30;99.90;;;;;;5054310;28;20071;-85
2022/01/19 02:05:16;;;;;;;12.95;5.65;;;3.30;99.90;;;;;;5051333;28;20036;-85
2022/01/19 02:07:58;;;;;;;8.32;4.80;;;3.20;99.90;;;;;;5071554;28;20021;-85
2022/01/19 02:10:57;;;;;;;9.55;5.03;;;3.20;99.90;;;;;;5057189;28;20163;-84
2022/01/19 02:16:29;;;;;;;7.53;4.22;;;2.90;99.90;;;;;;5043900;28;20044;-84
2022/01/19 02:22:02;;;;;;;11.57;4.70;;;2.70;99.90;;;;;;5044892;28;20414;-85
2022/01/19 02:24:32;;;;;;;11.73;4.75;;;2.60;99.90;;;;;;5037465;28;20120;-85
2022/01/19 02:30:11;;;;;;;16.45;5.85;;;2.30;99.90;;;;;;5071761;28;20078;-85
2022/01/19 02:40:39;;;;;;;13.07;5.28;;;1.90;99.90;;;;;;5037753;28;20067;-84
2022/01/19 02:43:10;;;;;;;9.00;5.85;;;1.80;99.90;;;;;;5042271;28;20028;-85
2022/01/19 02:51:11;;;;;;;13.15;5.43;;;1.70;99.90;;;;;;5061773;28;20040;-84
2022/01/19 02:53:40;;;;;;;13.20;5.25;;;1.60;99.90;;;;;;5034218;28;20559;-85
2022/01/19 02:56:23;;;;;;;12.95;5.63;;;1.70;99.90;;;;;;5034778;28;20563;-84
2022/01/19 02:58:59;;;;;;;12.52;5.43;;;1.60;99.90;;;;;;5019562;28;20495;-84
2022/01/19 03:09:23;;;;;;;9.52;4.72;;;1.50;99.90;;;;;;5054618;28;20489;-84
2022/01/19 03:11:50;;;;;;;9.18;5.63;;;1.50;99.90;;;;;;5034506;28;20075;-84
2022/01/19 03:14:17;;;;;;;13.13;5.57;;;1.50;99.90;;;;;;5031634;28;20163;-85
2022/01/19 03:16:44;;;;;;;14.50;6.40;;;1.50;99.90;;;;;;5033644;28;20569;-84
2022/01/19 03:19:11;;;;;;;13.05;6.05;;;1.50;99.90;;;;;;5033661;28;20040;-84
2022/01/19 03:21:38;;;;;;;11.85;6.22;;;1.50;99.90;;;;;;5050514;28;20029;-87
2022/01/19 03:24:10;;;;;;;11.55;5.80;;;1.50;99.90;;;;;;5053858;28;20035;-87
2022/01/19 03:26:42;;;;;;;15.93;5.32;;;1.40;99.90;;;;;;5070582;28;20434;-86
2022/01/19 03:29:14;;;;;;;14.35;5.28;;;1.40;99.90;;;;;;5050098;28;20048;-86
2022/01/19 03:31:39;;;;;;;13.40;5.85;;;1.40;99.90;;;;;;5050790;28;20027;-86
2022/01/19 03:34:06;;;;;;;11.38;5.65;;;1.40;99.90;;;;;;5053565;28;20634;-86
2022/01/19 03:36:33;;;;;;;15.85;5.78;;;1.30;99.90;;;;;;5036611;28;20064;-86
2022/01/19 03:39:01;;;;;;;10.68;5.53;;;1.30;99.90;;;;;;5048683;28;20029;-88
2022/01/19 03:41:30;;;;;;;13.07;6.22;;;1.20;99.90;;;;;;5048905;28;20032;-86
2022/01/19 03:43:59;;;;;;;12.90;5.93;;;1.20;99.90;;;;;;5049907;28;20067;-86
2022/01/19 03:46:32;;;;;;;12.73;6.22;;;1.10;99.90;;;;;;5050241;28;20064;-86
2022/01/19 03:49:09;;;;;;;16.10;6.00;;;1.10;99.90;;;;;;5035534;28;20029;-85
2022/01/19 03:51:34;;;;;;;11.77;6.07;;;1.00;99.90;;;;;;5033493;28;20025;-87
2022/01/19 03:54:04;;;;;;;11.48;6.05;;;0.90;99.90;;;;;;5047736;28;20533;-87
2022/01/19 03:56:33;;;;;;;10.38;5.65;;;0.90;99.90;;;;;;5054713;28;20023;-84
2022/01/19 03:59:02;;;;;;;14.60;5.63;;;0.80;99.90;;;;;;5033502;28;20040;-87
2022/01/19 04:01:27;;;;;;;12.70;6.00;;;0.80;99.90;;;;;;5037131;28;20016;-86
2022/01/19 04:04:13;;;;;;;9.82;6.07;;;0.70;99.90;;;;;;5069680;28;20032;-87
2022/01/19 04:06:56;;;;;;;14.30;6.30;;;0.70;99.90;;;;;;5070487;28;20434;-87
2022/01/19 04:09:23;;;;;;;14.32;6.07;;;0.70;99.90;;;;;;5069386;28;20105;-87
2022/01/19 04:11:53;;;;;;;12.15;5.53;;;0.60;99.90;;;;;;5069216;28;20115;-86
2022/01/19 04:14:28;;;;;;;13.13;6.38;;;0.60;99.90;;;;;;5059592;28;20093;-86
2022/01/19 04:16:57;;;;;;;13.82;6.30;;;0.60;99.90;;;;;;5069188;28;20439;-87
2022/01/19 04:19:30;;;;;;;15.27;6.20;;;0.60;99.90;;;;;;5054766;28;20576;-87
2022/01/19 04:22:05;;;;;;;16.30;5.22;;;0.50;99.90;;;;;;5035974;28;20065;-86
2022/01/19 04:24:31;;;;;;;12.35;5.32;;;0.50;99.90;;;;;;5043574;28;20033;-86
2022/01/19 04:29:52;;;;;;;10.57;5.82;;;0.40;99.90;;;;;;5051837;28;20045;-87
2022/01/19 04:32:23;;;;;;;14.80;6.20;;;0.40;99.90;;;;;;5062347;28;20025;-86
2022/01/19 04:34:50;;;;;;;9.93;4.93;;;0.40;99.90;;;;;;5033801;28;20033;-86
2022/01/19 05:06:50;;;;;;;15.95;5.65;;;0.40;99.90;;;;;;5064765;28;20394;-87
2022/01/19 05:14:55;;;;;;;14.07;6.57;;;0.40;99.90;;;;;;5054835;28;20395;-88
2022/01/19 05:17:23;;;;;;;14.25;6.70;;;0.50;99.90;;;;;;5036617;28;20033;-87
2022/01/19 05:19:49;;;;;;;11.77;6.25;;;0.50;99.90;;;;;;5019986;28;20037;-88
2022/01/19 05:22:14;;;;;;;18.38;6.75;;;0.40;99.90;;;;;;5031546;28;20020;-88
2022/01/19 05:24:40;;;;;;;14.13;5.93;;;0.40;99.90;;;;;;5039518;28;20645;-88
2022/01/19 05:27:09;;;;;;;15.98;5.78;;;0.30;99.90;;;;;;5039348;28;20035;-88
2022/01/19 05:29:38;;;;;;;15.40;6.07;;;0.30;99.90;;;;;;5039289;28;20028;-87
2022/01/19 05:32:05;;;;;;;15.95;6.00;;;0.20;99.90;;;;;;5031218;28;20033;-88
2022/01/19 05:34:30;;;;;;;16.63;6.10;;;0.20;99.90;;;;;;5037148;28;20127;-88
2022/01/19 05:36:56;;;;;;;11.38;5.18;;;0.10;99.90;;;;;;5021822;28;20117;-89
2022/01/19 05:39:25;;;;;;;19.58;6.18;;;0.00;99.90;;;;;;5035739;28;20037;-88
2022/01/19 05:42:03;;;;;;;11.70;6.15;;;0.00;99.90;;;;;;5052502;28;20028;-88
2022/01/19 05:44:32;;;;;;;12.57;5.72;;;-0.10;99.90;;;;;;5040231;28;20079;-88
2022/01/19 05:46:58;;;;;;;11.32;5.60;;;-0.10;99.90;;;;;;5052122;28;20025;-88
2022/01/19 05:49:23;;;;;;;11.95;5.55;;;-0.20;99.90;;;;;;5037711;28;20065;-86
2022/01/19 05:51:49;;;;;;;9.05;4.85;;;-0.20;99.90;;;;;;5046842;28;20060;-89
2022/01/19 05:54:21;;;;;;;13.38;6.10;;;-0.20;99.90;;;;;;5019243;28;20025;-88
2022/01/19 05:56:52;;;;;;;13.98;6.05;;;-0.20;99.90;;;;;;5042196;28;20021;-89
2022/01/19 05:59:25;;;;;;;12.40;6.25;;;-0.30;99.90;;;;;;5035948;28;20037;-88
2022/01/19 06:01:50;;;;;;;15.73;6.15;;;-0.30;99.90;;;;;;5035599;28;20029;-88
2022/01/19 06:04:16;;;;;;;14.93;6.78;;;-0.30;99.90;;;;;;5053802;28;20029;-88
2022/01/19 06:06:46;;;;;;;19.20;7.30;;;-0.20;99.90;;;;;;5071721;28;20076;-88
2022/01/19 06:12:04;;;;;;;13.88;6.53;;;-0.20;99.90;;;;;;5044137;28;20032;-89
2022/01/19 06:14:33;;;;;;;14.32;6.47;;;-0.20;99.90;;;;;;5039241;28;20040;-88
2022/01/19 06:16:59;;;;;;;14.77;6.40;;;-0.20;99.90;;;;;;5071523;28;20032;-87
2022/01/19 06:19:25;;;;;;;17.73;5.85;;;-0.30;99.90;;;;;;5051263;28;20029;-88
2022/01/19 06:21:55;;;;;;;12.45;6.65;;;-0.30;99.90;;;;;;5052191;28;20033;-88
2022/01/19 06:24:21;;;;;;;11.98;5.88;;;-0.40;99.90;;;;;;5050769;28;20412;-86
2022/01/19 06:26:47;;;;;;;14.95;6.97;;;-0.40;99.90;;;;;;5035274;28;20040;-88
2022/01/19 06:29:13;;;;;;;14.93;6.57;;;-0.40;99.90;;;;;;5018595;28;20029;-88
2022/01/19 06:31:42;;;;;;;15.30;5.57;;;-0.50;99.90;;;;;;5051495;28;20052;-88
2022/01/19 06:34:09;;;;;;;18.05;6.47;;;-0.50;99.90;;;;;;5051746;28;20066;-88
2022/01/19 06:36:37;;;;;;;15.68;6.82;;;-0.60;99.90;;;;;;5034673;28;20555;-88
2022/01/19 06:39:07;;;;;;;13.15;5.78;;;-0.60;99.90;;;;;;5019217;28;20724;-89
2022/01/19 06:41:33;;;;;;;13.90;6.43;;;-0.60;99.90;;;;;;5059875;28;20025;-86
2022/01/19 06:43:59;;;;;;;16.83;5.95;;;-0.70;99.90;;;;;;5038139;28;20048;-86
2022/01/19 06:46:25;;;;;;;11.93;6.50;;;-0.80;99.90;;;;;;5048600;28;20451;-88
2022/01/19 06:48:50;;;;;;;16.98;7.85;;;-0.80;99.90;;;;;;5050845;28;20086;-88
2022/01/19 06:51:28;;;;;;;13.65;6.88;;;-0.80;99.90;;;;;;5018199;28;20056;-89
2022/01/19 06:53:58;;;;;;;11.60;5.20;;;-0.80;99.90;;;;;;5051016;28;20028;-88
2022/01/19 06:56:36;;;;;;;14.18;6.53;;;-0.80;99.90;;;;;;5034826;28;20041;-88
2022/01/19 06:59:01;;;;;;;25.65;7.25;;;-0.90;99.90;;;;;;5044571;28;20127;-89
2022/01/19 07:01:31;;;;;;;16.80;6.45;;;-0.90;99.90;;;;;;5071007;28;20116;-87
2022/01/19 07:03:58;;;;;;;19.77;7.22;;;-0.90;99.90;;;;;;5034946;28;20044;-87
2022/01/19 07:06:24;;;;;;;16.10;6.60;;;-0.90;99.90;;;;;;5034424;28;20091;-88
2022/01/19 07:08:49;;;;;;;19.27;6.93;;;-0.90;99.90;;;;;;5020482;28;20063;-87
2022/01/19 07:11:16;;;;;;;15.55;7.13;;;-0.90;99.90;;;;;;5070825;28;20035;-87
2022/01/19 07:13:41;;;;;;;18.70;6.43;;;-0.90;99.90;;;;;;5070498;28;20063;-87
2022/01/19 07:16:07;;;;;;;14.60;6.95;;;-0.90;99.90;;;;;;5037364;28;20033;-87
2022/01/19 07:18:36;;;;;;;13.30;7.20;;;-0.90;99.90;;;;;;5037248;28;20398;-87
2022/01/19 07:21:08;;;;;;;18.30;7.03;;;-0.90;99.90;;;;;;5034395;28;20495;-87
2022/01/19 07:23:34;;;;;;;18.27;7.45;;;-0.90;99.90;;;;;;5036729;28;20421;-88
2022/01/19 07:26:00;;;;;;;15.55;7.20;;;-0.90;99.90;;;;;;5043886;28;20051;-88
2022/01/19 07:28:25;;;;;;;22.27;7.75;;;-0.90;99.90;;;;;;5033807;28;20029;-88
2022/01/19 07:30:54;;;;;;;20.10;9.20;;;-0.80;99.90;;;;;;5033995;28;20484;-88
2022/01/19 07:33:19;;;;;;;22.35;10.50;;;-0.80;99.90;;;;;;5042457;28;20020;-86
2022/01/19 07:35:54;;;;;;;19.83;8.80;;;-0.80;99.90;;;;;;5037016;28;20029;-86
2022/01/19 07:38:23;;;;;;;28.10;11.27;;;-0.70;99.90;;;;;;5068931;28;20043;-85
2022/01/19 07:40:49;;;;;;;17.77;9.10;;;-0.70;99.90;;;;;;5070250;28;20119;-85
2022/01/19 07:43:15;;;;;;;24.88;8.40;;;-0.70;99.90;;;;;;5066634;28;20107;-86
2022/01/19 07:45:41;;;;;;;19.38;8.40;;;-0.60;99.90;;;;;;5050286;28;20120;-86
2022/01/19 07:48:08;;;;;;;17.48;7.85;;;-0.50;99.90;;;;;;5036836;28;20028;-86
2022/01/19 07:50:34;;;;;;;23.48;7.35;;;-0.50;99.90;;;;;;5050613;28;20029;-86
2022/01/19 07:53:00;;;;;;;20.25;7.45;;;-0.40;99.90;;;;;;5049899;28;20024;-86
2022/01/19 07:55:25;;;;;;;16.60;7.63;;;-0.40;99.90;;;;;;5033514;28;20028;-85
2022/01/19 07:57:54;;;;;;;17.40;7.47;;;-0.30;99.90;;;;;;5049886;28;20025;-85
2022/01/19 08:00:25;;;;;;;19.55;7.30;;;-0.30;99.90;;;;;;5033644;28;20396;-86
2022/01/19 08:02:50;;;;;;;22.70;7.30;;;-0.30;99.90;;;;;;5033113;28;20025;-86
2022/01/19 08:05:17;;;;;;;25.27;8.75;;;-0.20;99.90;;;;;;5033296;28;20040;-87
2022/01/19 08:07:43;;;;;;;16.45;7.00;;;-0.20;99.90;;;;;;5040985;28;20023;-87
2022/01/19 08:10:11;;;;;;;18.50;8.52;;;-0.10;99.90;;;;;;5036511;28;20167;-87
2022/01/19 08:12:42;;;;;;;17.40;8.05;;;-0.10;99.90;;;;;;5069557;28;20097;-87
2022/01/19 08:15:11;;;;;;;21.80;8.65;;;-0.10;99.90;;;;;;5053177;28;20039;-86
2022/01/19 08:17:39;;;;;;;16.10;8.13;;;0.00;99.90;;;;;;5052866;28;20028;-87
2022/01/19 08:20:06;;;;;;;19.17;7.95;;;0.00;99.90;;;;;;5032969;28;20052;-88
2022/01/19 08:22:31;;;;;;;18.20;7.63;;;0.10;99.90;;;;;;5032948;28;20587;-86
2022/01/19 08:25:00;;;;;;;23.35;8.15;;;0.20;99.90;;;;;;5016390;28;20120;-87
2022/01/19 08:27:25;;;;;;;13.73;7.45;;;0.30;99.90;;;;;;5016600;28;20196;-86
2022/01/19 08:29:51;;;;;;;16.33;7.53;;;0.40;99.90;;;;;;5016227;28;20140;-87
2022/01/19 08:32:18;;;;;;;17.70;7.63;;;0.50;99.90;;;;;;5016247;28;20025;-87
2022/01/19 08:34:44;;;;;;;15.20;7.15;;;0.60;99.90;;;;;;5020151;28;20097;-87
2022/01/19 08:37:15;;;;;;;18.50;7.47;;;0.70;99.90;;;;;;5052467;28;20875;-86
2022/01/19 08:39:44;;;;;;;17.77;7.22;;;0.70;99.90;;;;;;5069553;28;20032;-86
2022/01/19 08:42:10;;;;;;;14.52;7.60;;;0.80;99.90;;;;;;5052414;28;20411;-87
2022/01/19 08:44:38;;;;;;;14.25;7.47;;;0.90;99.90;;;;;;5052864;28;20434;-86
2022/01/19 08:47:05;;;;;;;18.13;8.00;;;1.00;99.90;;;;;;5052371;28;20029;-87
2022/01/19 08:49:39;;;;;;;18.17;7.90;;;1.00;99.90;;;;;;5052480;28;20039;-87
2022/01/19 08:52:06;;;;;;;17.98;7.97;;;1.10;99.90;;;;;;5041550;28;20029;-86
2022/01/19 08:54:32;;;;;;;18.92;8.88;;;1.20;99.90;;;;;;5061861;28;20090;-87
2022/01/19 08:57:05;;;;;;;23.20;9.50;;;1.20;99.90;;;;;;5052404;28;20032;-88
2022/01/19 08:59:32;;;;;;;21.27;9.57;;;1.30;99.90;;;;;;5032820;28;20677;-87
2022/01/19 09:01:58;;;;;;;22.23;8.95;;;1.40;99.90;;;;;;5049090;28;20083;-86
2022/01/19 09:04:25;;;;;;;24.25;9.82;;;1.50;99.90;;;;;;5035701;28;20037;-87
2022/01/19 09:06:53;;;;;;;22.73;9.95;;;1.50;99.90;;;;;;5068839;28;20441;-85
2022/01/19 09:09:19;;;;;;;22.88;10.25;;;1.60;99.90;;;;;;5069289;28;20020;-86
2022/01/19 09:11:45;;;;;;;22.20;9.85;;;1.60;99.90;;;;;;5035807;28;20501;-87
2022/01/19 09:14:13;;;;;;;27.08;10.43;;;1.60;99.90;;;;;;5052338;28;20028;-87
2022/01/19 09:16:39;;;;;;;26.45;10.35;;;1.60;99.90;;;;;;5052723;28;20051;-87
2022/01/19 09:19:10;;;;;;;30.15;11.23;;;1.60;99.90;;;;;;5052262;28;20032;-87
2022/01/19 09:21:37;;;;;;;26.38;10.98;;;1.60;99.90;;;;;;5048376;28;20040;-88
2022/01/19 09:24:04;;;;;;;25.35;10.80;;;1.60;99.90;;;;;;5052086;28;20032;-88
2022/01/19 09:26:30;;;;;;;27.02;11.20;;;1.60;99.90;;;;;;5035310;28;20087;-86
2022/01/19 09:29:08;;;;;;;29.63;11.70;;;1.60;99.90;;;;;;5035441;28;20041;-87
2022/01/19 09:31:35;;;;;;;25.88;11.85;;;1.60;99.90;;;;;;5053286;28;20033;-87
2022/01/19 09:34:14;;;;;;;26.17;10.95;;;1.60;99.90;;;;;;5035648;28;20037;-87
2022/01/19 09:36:46;;;;;;;34.45;11.73;;;1.60;99.90;;;;;;5022313;28;20035;-86
2022/01/19 09:39:22;;;;;;;26.67;11.45;;;1.60;99.90;;;;;;5052937;28;20039;-87
2022/01/19 09:41:52;;;;;;;29.00;12.75;;;1.60;99.90;;;;;;5048593;28;20506;-87
2022/01/19 09:44:25;;;;;;;28.02;11.50;;;1.60;99.90;;;;;;5048842;28;20025;-87
2022/01/19 09:46:54;;;;;;;25.88;10.75;;;1.50;99.90;;;;;;5047730;28;20178;-87
2022/01/19 09:49:22;;;;;;;27.50;11.00;;;1.50;99.90;;;;;;5048432;28;20025;-86
2022/01/19 09:51:54;;;;;;;27.10;11.63;;;1.50;99.90;;;;;;5048573;28;20451;-86
2022/01/19 09:54:26;;;;;;;25.10;10.52;;;1.40;99.90;;;;;;5049495;28;20414;-86
2022/01/19 09:56:54;;;;;;;28.50;11.45;;;1.40;99.90;;;;;;5035610;28;20061;-87
2022/01/19 09:59:20;;;;;;;30.08;11.35;;;1.40;99.90;;;;;;5052026;28;20029;-86
2022/01/19 10:02:07;;;;;;;32.35;12.55;;;1.40;99.90;;;;;;5072252;22;20101;-84
2022/01/19 10:04:39;;;;;;;34.78;12.98;;;1.40;99.90;;;;;;5045064;28;20032;-85
2022/01/19 10:07:27;;;;;;;31.17;11.70;;;1.40;99.90;;;;;;5060917;28;20040;-85
2022/01/19 10:10:08;;;;;;;35.55;12.07;;;1.50;99.90;;;;;;5078344;28;20400;-84
2022/01/19 10:18:43;;;;;;;33.80;13.35;;;1.50;99.90;;;;;;5080494;28;20117;-84
2022/01/19 10:21:16;;;;;;;35.50;12.93;;;1.50;99.90;;;;;;5047093;28;20036;-84
2022/01/19 10:23:52;;;;;;;31.52;12.15;;;1.50;99.90;;;;;;5060980;28;20024;-83
2022/01/19 10:26:31;;;;;;;29.15;11.93;;;1.50;99.90;;;;;;5045999;28;20513;-84
2022/01/19 10:29:08;;;;;;;29.60;12.03;;;1.40;99.90;;;;;;5077193;28;20035;-84
2022/01/19 10:31:41;;;;;;;29.38;11.85;;;1.40;99.90;;;;;;5045049;28;20035;-84
2022/01/19 10:34:19;;;;;;;30.45;11.98;;;1.40;99.90;;;;;;5061781;28;20635;-84
2022/01/19 10:37:04;;;;;;;31.00;11.88;;;1.40;99.90;;;;;;5061806;28;20035;-84
2022/01/19 10:39:51;;;;;;;30.63;11.55;;;1.40;99.90;;;;;;5045715;28;20033;-85
2022/01/19 10:42:27;;;;;;;32.42;11.50;;;1.50;99.90;;;;;;5042250;28;20025;-85
2022/01/19 10:45:12;;;;;;;33.78;12.32;;;1.50;99.90;;;;;;5058639;28;20036;-85
2022/01/19 10:47:42;;;;;;;30.90;11.77;;;1.50;99.90;;;;;;5041903;28;20056;-84
2022/01/19 10:50:33;;;;;;;33.13;12.95;;;1.50;99.90;;;;;;5041865;28;20031;-85
2022/01/19 10:53:01;;;;;;;34.05;12.18;;;1.50;99.90;;;;;;5044664;28;20032;-85
2022/01/19 10:55:39;;;;;;;33.40;12.00;;;1.40;99.90;;;;;;5053564;28;20033;-85
2022/01/19 10:58:11;;;;;;;31.45;12.13;;;1.50;99.90;;;;;;5062317;28;20019;-83
2022/01/19 11:00:37;;;;;;;33.33;12.57;;;1.40;99.90;;;;;;5062097;28;20373;-84
2022/01/19 11:03:25;;;;;;;31.95;11.60;;;1.40;99.90;;;;;;5078703;28;20028;-85
2022/01/19 11:05:58;;;;;;;30.10;11.23;;;1.40;99.90;;;;;;5078035;28;20095;-83
2022/01/19 11:08:29;;;;;;;33.72;11.43;;;1.50;99.90;;;;;;5075760;28;20027;-84
2022/01/19 11:10:57;;;;;;;33.85;11.90;;;1.50;99.90;;;;;;5056476;28;20020;-84
2022/01/19 11:13:45;;;;;;;31.88;12.40;;;1.50;99.90;;;;;;5039821;28;20031;-83
2022/01/19 11:16:17;;;;;;;30.58;11.63;;;1.50;99.90;;;;;;5042065;28;20033;-84
2022/01/19 11:18:49;;;;;;;31.23;11.35;;;1.50;99.90;;;;;;5040368;28;20033;-84
2022/01/19 11:21:29;;;;;;;33.22;11.35;;;1.50;99.90;;;;;;5023074;28;20127;-83
2022/01/19 11:24:26;;;;;;;35.35;11.75;;;1.50;99.90;;;;;;5041936;28;20679;-84
2022/01/19 11:26:55;;;;;;;32.78;12.50;;;1.50;99.90;;;;;;5068193;28;20043;-83
2022/01/19 11:29:24;;;;;;;30.83;12.13;;;1.50;99.90;;;;;;5064640;28;20029;-84
2022/01/19 11:31:59;;;;;;;32.75;11.90;;;1.50;99.90;;;;;;5059031;28;20029;-84
2022/01/19 11:34:57;;;;;;;34.22;13.40;;;1.50;99.90;;;;;;5038937;28;20115;-83
2022/01/19 11:37:43;;;;;;;39.85;13.38;;;1.50;99.90;;;;;;5021851;28;20029;-83
2022/01/19 11:40:23;;;;;;;33.75;12.13;;;1.40;99.90;;;;;;5022094;28;20087;-84
2022/01/19 11:42:49;;;;;;;31.63;11.10;;;1.40;99.90;;;;;;5054547;28;20210;-83
2022/01/19 11:45:37;;;;;;;32.15;11.88;;;1.40;99.90;;;;;;5054486;28;20029;-83
2022/01/19 11:48:16;;;;;;;39.92;12.73;;;1.40;99.90;;;;;;5039158;28;20044;-84
2022/01/19 11:50:42;;;;;;;37.28;12.88;;;1.40;99.90;;;;;;5054525;28;20399;-83
2022/01/19 11:53:11;;;;;;;42.85;13.38;;;1.40;99.90;;;;;;5037555;28;20058;-83
2022/01/19 11:55:42;;;;;;;39.35;13.23;;;1.40;99.90;;;;;;5038580;28;20090;-83
2022/01/19 11:58:24;;;;;;;35.30;12.80;;;1.50;99.90;;;;;;5038351;28;20029;-83
2022/01/19 12:01:01;;;;;;;37.13;12.52;;;1.50;99.90;;;;;;5022757;28;20490;-83
2022/01/19 12:03:38;;;;;;;39.13;12.63;;;1.50;99.90;;;;;;5054385;28;20028;-83
2022/01/19 12:06:03;;;;;;;44.72;13.32;;;1.50;99.90;;;;;;5054248;28;20048;-84
2022/01/19 12:08:38;;;;;;;34.60;11.93;;;1.50;99.90;;;;;;5037571;28;20064;-84
2022/01/19 12:11:23;;;;;;;37.42;11.93;;;1.60;99.90;;;;;;5037795;28;20052;-83
2022/01/19 12:14:21;;;;;;;39.05;12.85;;;1.60;99.90;;;;;;5037688;28;20043;-83
2022/01/19 12:17:14;;;;;;;34.05;11.93;;;1.60;99.90;;;;;;5038378;28;20116;-84
2022/01/19 12:19:43;;;;;;;34.22;11.88;;;1.60;99.90;;;;;;5020115;28;20402;-83
2022/01/19 12:22:24;;;;;;;36.95;11.85;;;1.60;99.90;;;;;;5053648;28;20127;-83
2022/01/19 12:25:09;;;;;;;36.92;12.27;;;1.70;99.90;;;;;;5053578;28;20024;-83
2022/01/19 12:27:38;;;;;;;32.55;11.93;;;1.70;99.90;;;;;;5066601;28;20448;-83
2022/01/19 12:30:15;;;;;;;40.25;11.80;;;1.80;99.90;;;;;;5040601;28;20043;-84
2022/01/19 12:32:46;;;;;;;32.00;12.18;;;1.90;99.90;;;;;;5059997;28;20581;-83
2022/01/19 12:35:24;;;;;;;34.05;12.35;;;1.90;99.90;;;;;;5037663;28;20035;-83
2022/01/19 12:37:56;;;;;;;35.67;12.43;;;1.90;99.90;;;;;;5037408;28;20035;-83
2022/01/19 12:40:40;;;;;;;31.48;10.68;;;2.00;99.90;;;;;;5020669;28;20032;-83
2022/01/19 12:43:28;;;;;;;30.65;10.57;;;2.00;99.90;;;;;;5053123;28;20391;-83
2022/01/19 12:45:59;;;;;;;31.52;11.40;;;2.00;99.90;;;;;;5053752;28;20025;-83
2022/01/19 12:48:40;;;;;;;28.20;11.30;;;2.00;99.90;;;;;;5053392;28;20033;-85
2022/01/19 12:51:07;;;;;;;29.48;11.43;;;2.00;99.90;;;;;;5036933;28;20063;-83
2022/01/19 12:53:32;;;;;;;30.35;10.75;;;2.00;99.90;;;;;;5053608;28;20391;-84
2022/01/19 12:56:15;;;;;;;28.75;9.88;;;2.00;99.90;;;;;;5020740;28;20020;-83
2022/01/19 12:58:41;;;;;;;27.25;9.20;;;2.00;99.90;;;;;;5036866;28;20563;-83
2022/01/19 13:01:21;;;;;;;28.23;11.10;;;2.00;99.90;;;;;;5020165;28;20075;-84
2022/01/19 13:03:50;;;;;;;28.33;10.25;;;2.10;99.90;;;;;;5038816;28;20036;-83
2022/01/19 13:06:24;;;;;;;29.02;9.73;;;2.00;99.90;;;;;;5037184;28;20115;-84
2022/01/19 13:09:03;;;;;;;29.45;11.10;;;2.10;99.90;;;;;;5053224;28;20570;-83
2022/01/19 13:11:51;;;;;;;28.20;10.02;;;2.10;99.90;;;;;;5038999;28;20182;-84
2022/01/19 13:14:17;;;;;;;32.60;10.20;;;2.10;99.90;;;;;;5046411;28;20487;-83
2022/01/19 13:16:53;;;;;;;25.48;10.52;;;2.10;99.90;;;;;;5056175;28;20439;-84
2022/01/19 13:19:26;;;;;;;34.70;10.90;;;2.10;99.90;;;;;;5056249;28;20130;-84
2022/01/19 13:22:04;;;;;;;30.33;9.68;;;2.10;99.90;;;;;;5073316;28;20394;-86
2022/01/19 13:24:33;;;;;;;28.33;9.75;;;2.10;99.90;;;;;;5037006;28;20037;-84
2022/01/19 13:27:04;;;;;;;29.88;9.90;;;2.10;99.90;;;;;;5052522;28;20123;-84
2022/01/19 13:29:31;;;;;;;30.58;10.60;;;2.10;99.90;;;;;;5070559;28;20036;-85
2022/01/19 13:32:13;;;;;;;37.55;10.55;;;2.10;99.90;;;;;;5056611;28;20023;-83
2022/01/19 13:34:53;;;;;;;29.13;10.20;;;2.10;99.90;;;;;;5057299;28;20028;-84
2022/01/19 13:37:20;;;;;;;31.60;10.15;;;2.10;99.90;;;;;;5041011;28;20044;-84
2022/01/19 13:39:54;;;;;;;28.25;9.90;;;2.20;99.90;;;;;;5065015;28;20065;-84
2022/01/19 13:43:19;;;;;;;34.72;9.90;;;2.20;99.90;;;;;;5077239;28;20399;-85
2022/01/19 13:48:28;;;;;;;32.55;11.02;;;2.20;99.90;;;;;;5040321;28;20059;-85
2022/01/19 13:51:14;;;;;;;31.88;10.90;;;2.20;99.90;;;;;;5063171;28;20031;-84
2022/01/19 13:53:52;;;;;;;33.83;11.35;;;2.10;99.90;;;;;;5061666;28;20379;-85
2022/01/19 13:56:30;;;;;;;30.77;9.95;;;2.10;99.90;;;;;;5051849;28;20045;-85
2022/01/19 13:59:18;;;;;;;32.38;10.70;;;2.10;99.90;;;;;;5071117;28;20035;-84
2022/01/19 14:02:10;;;;;;;34.15;10.50;;;2.10;99.90;;;;;;5079317;28;20032;-84
2022/01/19 14:04:52;;;;;;;32.05;11.10;;;2.10;99.90;;;;;;5096638;28;20043;-84
2022/01/19 14:07:19;;;;;;;39.47;13.23;;;2.10;99.90;;;;;;5078360;28;20048;-84
2022/01/19 14:09:46;;;;;;;36.80;11.43;;;2.10;99.90;;;;;;5062315;28;20028;-84
2022/01/19 14:12:16;;;;;;;37.22;13.07;;;2.10;99.90;;;;;;5062233;28;20057;-84
2022/01/19 14:14:49;;;;;;;34.28;11.70;;;2.00;99.90;;;;;;5062405;28;20052;-84
2022/01/19 14:17:31;;;;;;;35.03;12.20;;;2.00;99.90;;;;;;5062258;28;20024;-83
2022/01/19 14:19:58;;;;;;;39.47;13.63;;;2.00;99.90;;;;;;5042583;28;20739;-84
2022/01/19 14:22:35;;;;;;;36.10;12.68;;;2.00;99.90;;;;;;5058650;28;20509;-85
2022/01/19 14:25:12;;;;;;;40.50;13.48;;;1.90;99.90;;;;;;5059204;28;20086;-85
2022/01/19 14:28:08;;;;;;;39.35;12.85;;;1.90;99.90;;;;;;5043467;28;20033;-83
2022/01/19 14:30:52;;;;;;;31.73;12.43;;;1.90;99.90;;;;;;5090776;28;20051;-83
2022/01/19 14:33:30;;;;;;;34.63;10.98;;;1.90;99.90;;;;;;5059718;28;20032;-83